Aviation Digital Data Service (ADDS)

Output produced by METARs form (1744 UTC 31 October 2014)
found at http://www.aviationweather.gov/adds/metars/
 
KCXY 311656Z 10004KT 10SM OVC060 11/02 A2995 RMK AO2 SLP144 T01060017
KCXY 311556Z 09003KT 10SM OVC060 10/02 A2999 RMK AO2 SLP156 T01000017
KCXY 311456Z 08005KT 10SM OVC060 09/02 A3000 RMK AO2 SLP160 T00940017 58004
KCXY 311356Z 08006KT 10SM OVC060 08/02 A3001 RMK AO2 SLP163 T00830017
KCXY 311256Z 08005KT 10SM OVC055 08/02 A3002 RMK AO2 SLP168 T00830022
KCXY 311156Z 10005KT 10SM OVC055 08/03 A3001 RMK AO2 SLP164 T00830028 10094 20078 58001
KCXY 311056Z 10005KT 10SM OVC055 08/03 A3001 RMK AO2 SLP165 T00780033
KCXY 310956Z AUTO 00000KT 10SM OVC060 08/03 A3001 RMK AO2 SLP166 T00830033
KCXY 310856Z AUTO 06003KT 10SM OVC060 09/03 A3001 RMK AO2 SLP165 T00890028 58005
KCXY 310756Z AUTO 08003KT 10SM OVC055 09/03 A3001 RMK AO2 SLP166 T00890033
KCXY 310656Z AUTO 00000KT 10SM OVC055 08/04 A3003 RMK AO2 SLP170 T00830044
KCXY 310556Z AUTO 00000KT 10SM OVC055 08/04 A3003 RMK AO2 SLP170 T00830044 10111 20078 58003
KCXY 310456Z AUTO 00000KT 10SM OVC055 08/04 A3003 RMK AO2 SLP172 T00830044 401330050
KCXY 310356Z AUTO 00000KT 10SM OVC055 08/04 A3003 RMK AO2 SLP173 T00830039
KCXY 310256Z AUTO 22003KT 10SM OVC055 08/04 A3003 RMK AO2 SLP173 T00780039 58001
KCXY 310156Z AUTO 00000KT 10SM OVC055 10/03 A3004 RMK AO2 SLP174 T01000033
KCXY 310056Z AUTO 25003KT 10SM BKN060 09/04 A3003 RMK AO2 SLP173 T00940039
KCXY 302356Z 00000KT 10SM OVC055 11/03 A3004 RMK AO2 SLP173 T01110028 10133 20106 50004
KCXY 302256Z 29003KT 10SM OVC055 11/02 A3004 RMK AO2 SLP175 T01110022
KCXY 302156Z 31006KT 10SM BKN055 12/02 A3003 RMK AO2 SLP170 T01170017
KCXY 302056Z 33007KT 10SM OVC060 13/02 A3002 RMK AO2 SLP169 T01280017 56004
KCXY 301956Z 31007KT 10SM FEW044 OVC060 13/03 A3002 RMK AO2 SLP169 T01280028
KCXY 301856Z 31007KT 10SM OVC055 13/03 A3003 RMK AO2 SLP170 T01280028
KCXY 301756Z VRB06KT 10SM OVC055 12/03 A3004 RMK AO2 SLP173 T01220028 10133 20061 58009
KCXY 301656Z 30008KT 10SM BKN045 12/03 A3005 RMK AO2 SLP177 T01220028
KCXY 301556Z 34008KT 10SM SCT070 13/03 A3006 RMK AO2 SLP181 T01280033
KCXY 301456Z 27008KT 10SM BKN070 12/05 A3006 RMK AO2 SLP182 T01170050 51007
KCXY 301356Z 25005KT 10SM FEW070 11/05 A3006 RMK AO2 SLP181 T01060050
KCXY 301256Z 29003KT 10SM CLR 08/04 A3006 RMK AO2 SLP180 T00830039
KCXY 301156Z 32003KT 10SM CLR 06/03 A3004 RMK AO2 SLP175 70011 T00610033 10067 20050 51015
KCXY 301056Z 00000KT 10SM FEW050 06/03 A3003 RMK AO2 SLP172 T00560033
KCXY 300956Z AUTO 27004KT 10SM CLR 06/03 A3002 RMK AO2 SLP166 T00560033
KCXY 300856Z AUTO 30003KT 10SM OVC075 06/04 A3000 RMK AO2 SLP160 T00560044 53003
KCXY 300800Z AUTO 00000KT 3SM BR CLR 05/04 A2998 RMK AO2 T00500044
KCXY 300756Z AUTO 00000KT 1 3/4SM BR CLR 05/04 A2999 RMK AO2 SLP156 T00500044
KCXY 300752Z AUTO 00000KT 1SM R08/P6000FT BR CLR 05/05 A2998 RMK AO2
KCXY 300745Z AUTO 00000KT 1 1/2SM BR CLR 05/04 A2998 RMK AO2 T00500044
KCXY 300724Z AUTO 00000KT 4SM BR CLR 06/05 A2999 RMK AO2 T00560050
KCXY 300713Z AUTO 00000KT 1 3/4SM BR CLR 06/05 A2999 RMK AO2 VIS 1/2V5 T00560050
KCXY 300704Z AUTO 00000KT 3SM BR CLR 06/05 A2999 RMK AO2 T00610050
KCXY 300656Z AUTO 00000KT 1 1/2SM BR CLR 06/05 A2999 RMK AO2 SLP157 T00560050
KCXY 300653Z AUTO 00000KT 1 3/4SM BR CLR 06/05 A2999 RMK AO2
KCXY 300632Z AUTO 23003KT 4SM BR FEW002 06/05 A2999 RMK AO2 T00560050
KCXY 300624Z AUTO 24003KT 2SM BR SCT002 06/05 A2999 RMK AO2 T00560050
KCXY 300616Z AUTO 00000KT 1 1/4SM BR SCT002 06/05 A2999 RMK AO2 VIS 1/2V2 1/2 T00560050
KCXY 300556Z AUTO 24004KT 1/4SM R08/2600V4000FT FG VV003 06/06 A2999 RMK AO2 SLP158 T00610056 10111 20061 53002